Aeroporto :
LOGIN :

Iscrizione | Disclaimer

   EN    FR    IT 

 










Sommario :    VFR   VFR Marginale   IFR   IFR Intensivo   IFR Molto Intensivo
Visibilità : 
Base nubi : 
>= 8 km
>= 3000ft
5 / 8 km
1000 / 3000 ft
1500m / 5 km
500 / 1000 ft
800 / 1500m
200 / 500 ft
< 800m
< 200 ft
Simboli :   Temporali  Nebbia  Neve Forte  Precipitazioni Forti  Vento > 20 kt
SIGMETs :   Varie  Temporali  Ghiacco  Turbolenza  Onda orograficha  Ceneri Vulcaniche







- Altitudine del aeroporto : 614 ft
- Codice IATA : CRL


EBCI - Charleroi

ULTIMO METAR :
  • 220850Z 06014KT 9000 NSC M02/M05 Q1021 NOSIG

METARs OBSOLETI :
  • 220820Z 05014KT 8000 NSC M02/M05 Q1021 NOSIG
  • 220750Z 05013KT 6000 NSC M03/M05 Q1021 NOSIG
  • 220720Z 05012KT 6000 NSC M03/M05 Q1021 NOSIG
  • 220650Z 05011KT 5000 BR NSC M04/M05 Q1021 NOSIG
  • 220620Z 05012KT 5000 BR NSC M03/M05 Q1021 NOSIG

TAF TAF EBCI
Valido dal 22 a 06 ore il 23 a 12 ore UTC


220502Z 2206/2312 06011KT 7000 NSC
PROB30
TEMPO 2206/2208 4500 BR
PROB30
TEMPO 2212/2216 06015G25KT
Nessun NOTAM noto per questo aeroporto.
1 SIGMET conosciuto per la FIR Brussels (EBBU) :
 
Turbolenza severa
EBBU SIGMET 03 VALID 220800/221200 EBBR
EBBU BRUSSELS FIR SEV TURB FCST E OF E00315 FL170/250 MOV W 20KT WKN=



MetMap, La meteo Aeronautica in un colpo d'occhio ! - Copyright ORBIFLY Dicembre 2007 - Disclaimer

ORBIFLY MET'MAP TEAM :

Programmazione e sviluppo : Alexandra Zaïnal
Concezione e sviluppo : Baudouin d'Aumeries
Co-Programmazione e sviluppo : Marc-Olivier Méhu
Supporto tecnico e logistico : Manuel Goepfert
Aiuto per la traduzione : Arnaldo La Scala

Contatto : metmap@orbifly.com




FONTI E CREDITI :

   NOAA